createdAt,value
2023-04-21T00:00:20.697Z,25.75
2023-04-21T00:01:20.749Z,25.77
2023-04-21T00:02:20.870Z,25.75
2023-04-21T00:03:21.106Z,25.72
2023-04-21T00:04:21.063Z,25.75
2023-04-21T00:05:21.256Z,25.76
2023-04-21T00:06:21.055Z,25.76
2023-04-21T00:07:21.110Z,25.76
2023-04-21T00:08:21.189Z,25.73
2023-04-21T00:09:21.491Z,25.75
2023-04-21T00:10:21.297Z,25.75
2023-04-21T00:11:21.345Z,25.72
2023-04-21T00:12:21.431Z,25.76
2023-04-21T00:13:21.485Z,25.72
2023-04-21T00:14:21.572Z,25.73
2023-04-21T00:15:21.601Z,25.73
2023-04-21T00:16:21.719Z,25.75
2023-04-21T00:17:21.715Z,25.72
2023-04-21T00:18:21.769Z,25.72
2023-04-21T00:19:21.853Z,25.73
2023-04-21T00:20:21.900Z,25.72
2023-04-21T00:21:21.985Z,25.73
2023-04-21T00:22:22.028Z,25.73
2023-04-21T00:23:22.086Z,25.72
2023-04-21T00:24:22.125Z,25.72
2023-04-21T00:25:22.186Z,25.69
2023-04-21T00:26:22.238Z,25.70
2023-04-21T00:27:22.302Z,25.72
2023-04-21T00:28:22.368Z,25.70
2023-04-21T00:29:22.444Z,25.72
2023-04-21T00:30:22.480Z,25.72
2023-04-21T00:31:22.575Z,25.67
2023-04-21T00:32:22.679Z,25.70
2023-04-21T00:33:22.696Z,25.72
2023-04-21T00:34:22.748Z,25.70
2023-04-21T00:35:22.809Z,25.69
2023-04-21T00:36:22.888Z,25.69
2023-04-21T00:37:22.946Z,25.70
2023-04-21T00:38:23.024Z,25.72
2023-04-21T00:39:23.047Z,25.69
2023-04-21T00:40:23.121Z,25.70
2023-04-21T00:41:23.172Z,25.70
2023-04-21T00:42:23.244Z,25.66
2023-04-21T00:43:23.308Z,25.69
2023-04-21T00:44:23.396Z,25.69
2023-04-21T00:45:23.434Z,25.65
2023-04-21T00:46:23.491Z,25.69
2023-04-21T00:47:23.595Z,25.67
2023-04-21T00:48:23.588Z,25.69
2023-04-21T00:49:23.647Z,25.66
2023-04-21T00:50:23.701Z,25.65
2023-04-21T00:51:23.743Z,25.66
2023-04-21T00:52:23.824Z,25.69
2023-04-21T00:53:23.896Z,25.67
2023-04-21T00:54:23.913Z,25.66
2023-04-21T00:55:24.002Z,25.66
2023-04-21T00:56:24.086Z,25.67
2023-04-21T00:57:24.134Z,25.65
2023-04-21T00:58:24.181Z,25.66
2023-04-21T00:59:24.263Z,25.67
2023-04-21T01:00:24.285Z,25.66
2023-04-21T01:01:24.548Z,25.66
2023-04-21T01:02:24.626Z,25.66
2023-04-21T01:03:24.590Z,25.67
2023-04-21T01:04:24.625Z,25.66
2023-04-21T01:05:24.606Z,25.65
2023-04-21T01:06:24.689Z,25.63
2023-04-21T01:07:24.752Z,25.63
2023-04-21T01:08:24.795Z,25.63
2023-04-21T01:09:24.858Z,25.65
2023-04-21T01:10:24.924Z,25.63
2023-04-21T01:11:25.429Z,25.65
2023-04-21T01:12:25.061Z,25.65
2023-04-21T01:13:25.083Z,25.65
2023-04-21T01:14:25.131Z,25.63
2023-04-21T01:15:25.157Z,25.63
2023-04-21T01:16:25.267Z,25.60
2023-04-21T01:17:25.265Z,25.65
2023-04-21T01:18:25.334Z,25.62
2023-04-21T01:19:25.408Z,25.63
2023-04-21T01:20:25.451Z,25.65
2023-04-21T01:21:25.478Z,25.62
2023-04-21T01:22:25.531Z,25.63
2023-04-21T01:23:25.605Z,25.62
2023-04-21T01:24:25.634Z,25.60
2023-04-21T01:25:25.696Z,25.62
2023-04-21T01:26:25.733Z,25.63
2023-04-21T01:27:25.778Z,25.62
2023-04-21T01:28:25.840Z,25.62
2023-04-21T01:29:25.898Z,25.62
2023-04-21T01:30:25.933Z,25.57
2023-04-21T01:31:25.947Z,25.62
2023-04-21T01:32:26.131Z,25.60
2023-04-21T01:33:25.990Z,25.60
2023-04-21T01:34:26.029Z,25.60
2023-04-21T01:35:26.047Z,25.62
2023-04-21T01:36:26.107Z,25.62
2023-04-21T01:37:26.106Z,25.57
2023-04-21T01:38:26.142Z,25.60
2023-04-21T01:39:26.171Z,25.59
2023-04-21T01:40:26.186Z,25.60
2023-04-21T01:41:26.186Z,25.57
2023-04-21T01:42:26.223Z,25.59
2023-04-21T01:43:26.239Z,25.57
2023-04-21T01:44:26.231Z,25.62
2023-04-21T01:45:26.251Z,25.59
2023-04-21T01:46:26.334Z,25.59
2023-04-21T01:47:26.269Z,25.57
2023-04-21T01:48:26.271Z,25.60
2023-04-21T01:49:26.301Z,25.57
2023-04-21T01:50:26.328Z,25.56
2023-04-21T01:51:26.352Z,25.59
2023-04-21T01:52:26.895Z,25.60
2023-04-21T01:53:26.371Z,25.59
2023-04-21T01:54:26.430Z,25.59
2023-04-21T01:55:26.436Z,25.57
2023-04-21T01:56:26.467Z,25.56
2023-04-21T01:57:26.485Z,25.56
2023-04-21T01:58:26.509Z,25.56
2023-04-21T01:59:26.512Z,25.54
2023-04-21T02:00:26.577Z,25.57
2023-04-21T02:01:26.605Z,25.57
2023-04-21T02:02:26.722Z,25.56
2023-04-21T02:03:26.743Z,25.56
2023-04-21T02:04:26.811Z,25.56
2023-04-21T02:05:26.712Z,25.56
2023-04-21T02:06:26.707Z,25.57
2023-04-21T02:07:26.763Z,25.56
2023-04-21T02:08:26.785Z,25.57
2023-04-21T02:09:26.772Z,25.57
2023-04-21T02:10:26.781Z,25.56
2023-04-21T02:11:26.801Z,25.57
2023-04-21T02:12:26.849Z,25.53
2023-04-21T02:13:26.815Z,25.53
2023-04-21T02:14:26.827Z,25.57
2023-04-21T02:15:26.961Z,25.54
2023-04-21T02:16:26.906Z,25.56
2023-04-21T02:17:26.878Z,25.56
2023-04-21T02:18:26.841Z,25.56
2023-04-21T02:19:26.857Z,25.53
2023-04-21T02:20:26.881Z,25.56
2023-04-21T02:21:26.852Z,25.54
2023-04-21T02:22:26.840Z,25.56
2023-04-21T02:23:26.863Z,25.53
2023-04-21T02:24:26.836Z,25.54
2023-04-21T02:25:26.849Z,25.54
2023-04-21T02:26:26.827Z,25.54
2023-04-21T02:27:26.818Z,25.56
2023-04-21T02:28:26.821Z,25.53
2023-04-21T02:29:26.831Z,25.53
2023-04-21T02:30:26.791Z,25.53
2023-04-21T02:31:26.867Z,25.54
2023-04-21T02:32:26.951Z,25.54
2023-04-21T02:33:26.864Z,25.53
2023-04-21T02:34:26.783Z,25.53
2023-04-21T02:35:26.787Z,25.54
2023-04-21T02:36:26.799Z,25.52
2023-04-21T02:37:26.821Z,25.52
2023-04-21T02:38:26.815Z,25.50
2023-04-21T02:39:26.826Z,25.50
2023-04-21T02:40:26.828Z,25.53
2023-04-21T02:41:26.811Z,25.54
2023-04-21T02:42:26.775Z,25.52
2023-04-21T02:43:26.761Z,25.53
2023-04-21T02:44:26.777Z,25.49
2023-04-21T02:45:26.802Z,25.52
2023-04-21T02:46:26.798Z,25.52
2023-04-21T02:47:26.959Z,25.52
2023-04-21T02:48:26.804Z,25.49
2023-04-21T02:49:26.745Z,25.50
2023-04-21T02:50:26.767Z,25.52
2023-04-21T02:51:26.770Z,25.52
2023-04-21T02:52:26.789Z,25.52
2023-04-21T02:53:27.426Z,25.49
2023-04-21T02:54:26.741Z,25.50
2023-04-21T02:55:26.762Z,25.52
2023-04-21T02:56:26.737Z,25.50
2023-04-21T02:57:26.733Z,25.50
2023-04-21T02:58:26.739Z,25.49
2023-04-21T02:59:26.725Z,25.49
2023-04-21T03:00:26.727Z,25.49
2023-04-21T03:01:26.843Z,25.49
2023-04-21T03:02:26.846Z,25.49
2023-04-21T03:03:26.851Z,25.49
2023-04-21T03:04:26.774Z,25.48
2023-04-21T03:05:26.681Z,25.46
2023-04-21T03:06:26.713Z,25.46
2023-04-21T03:07:26.701Z,25.46
2023-04-21T03:08:26.684Z,25.46
2023-04-21T03:09:26.667Z,25.48
2023-04-21T03:10:26.636Z,25.49
2023-04-21T03:11:26.684Z,25.49
2023-04-21T03:12:26.669Z,25.50
2023-04-21T03:13:26.680Z,25.46
2023-04-21T03:14:26.638Z,25.46
2023-04-21T03:15:26.665Z,25.48
2023-04-21T03:16:26.696Z,25.48
2023-04-21T03:17:26.687Z,25.49
2023-04-21T03:18:26.619Z,25.46
2023-04-21T03:19:26.653Z,25.46
2023-04-21T03:20:26.608Z,25.46
2023-04-21T03:21:26.605Z,25.45
2023-04-21T03:22:26.618Z,25.48
2023-04-21T03:23:26.649Z,25.48
2023-04-21T03:24:26.636Z,25.46
2023-04-21T03:25:26.655Z,25.43
2023-04-21T03:26:26.626Z,25.45
2023-04-21T03:27:26.618Z,25.43
2023-04-21T03:28:26.623Z,25.45
2023-04-21T03:29:26.598Z,25.45
2023-04-21T03:30:26.616Z,25.43
2023-04-21T03:31:26.602Z,25.45
2023-04-21T03:32:26.625Z,25.45
2023-04-21T03:33:26.593Z,25.43
2023-04-21T03:34:26.581Z,25.45
2023-04-21T03:35:26.570Z,25.43
2023-04-21T03:36:26.588Z,25.42
2023-04-21T03:37:26.603Z,25.45
2023-04-21T03:38:26.576Z,25.43
2023-04-21T03:39:26.869Z,25.45
2023-04-21T03:40:26.564Z,25.43
2023-04-21T03:41:26.550Z,25.40
2023-04-21T03:42:26.561Z,25.43
2023-04-21T03:43:26.567Z,25.46
2023-04-21T03:44:26.515Z,25.45
2023-04-21T03:45:26.516Z,25.45
2023-04-21T03:46:26.582Z,25.43
2023-04-21T03:47:26.541Z,25.43
2023-04-21T03:48:26.508Z,25.42
2023-04-21T03:49:26.528Z,25.42
2023-04-21T03:50:26.536Z,25.43
2023-04-21T03:51:26.526Z,25.42
2023-04-21T03:52:26.505Z,25.40
2023-04-21T03:53:26.515Z,25.42
2023-04-21T03:54:27.464Z,25.40
2023-04-21T03:55:26.498Z,25.43
2023-04-21T03:56:26.482Z,25.43
2023-04-21T03:57:26.463Z,25.40
2023-04-21T03:58:26.490Z,25.42
2023-04-21T03:59:26.456Z,25.42
2023-04-21T04:00:26.458Z,25.40
2023-04-21T04:01:26.451Z,25.40
2023-04-21T04:02:26.548Z,25.40
2023-04-21T04:03:26.627Z,25.40
2023-04-21T04:04:26.634Z,25.40
2023-04-21T04:05:26.486Z,25.40
2023-04-21T04:06:27.449Z,25.42
2023-04-21T04:07:26.483Z,25.40
2023-04-21T04:08:26.429Z,25.39
2023-04-21T04:09:26.436Z,25.40
2023-04-21T04:10:26.443Z,25.39
2023-04-21T04:11:26.452Z,25.38
2023-04-21T04:12:26.504Z,25.39
2023-04-21T04:13:26.464Z,25.39
2023-04-21T04:14:26.459Z,25.38
2023-04-21T04:15:26.455Z,25.39
2023-04-21T04:16:26.568Z,25.39
2023-04-21T04:17:26.486Z,25.39
2023-04-21T04:18:26.446Z,25.38
2023-04-21T04:19:26.470Z,25.38
2023-04-21T04:20:26.465Z,25.40
2023-04-21T04:21:26.470Z,25.39
2023-04-21T04:22:26.498Z,25.39
2023-04-21T04:23:26.482Z,25.38
2023-04-21T04:24:26.486Z,25.39
2023-04-21T04:25:26.469Z,25.39
2023-04-21T04:26:26.467Z,25.39
2023-04-21T04:27:26.486Z,25.38
2023-04-21T04:28:26.454Z,25.38
2023-04-21T04:29:26.477Z,25.38
2023-04-21T04:30:26.471Z,25.38
2023-04-21T04:31:26.476Z,25.40
2023-04-21T04:32:26.512Z,25.38
2023-04-21T04:33:26.478Z,25.38
2023-04-21T04:34:26.497Z,25.38
2023-04-21T04:35:26.514Z,25.38
2023-04-21T04:36:26.498Z,25.38
2023-04-21T04:37:26.516Z,25.36
2023-04-21T04:38:26.521Z,25.38
2023-04-21T04:39:26.526Z,25.36
2023-04-21T04:40:26.517Z,25.36
2023-04-21T04:41:26.519Z,25.36
2023-04-21T04:42:26.516Z,25.38
2023-04-21T04:43:26.537Z,25.38
2023-04-21T04:44:26.542Z,25.36
2023-04-21T04:45:26.508Z,25.36
2023-04-21T04:46:26.539Z,25.35
2023-04-21T04:47:26.654Z,25.36
2023-04-21T04:48:26.517Z,25.35
2023-04-21T04:49:26.500Z,25.35
2023-04-21T04:50:26.510Z,25.38
2023-04-21T04:51:26.533Z,25.35
2023-04-21T04:52:26.528Z,25.38
2023-04-21T04:53:26.507Z,25.33
2023-04-21T04:54:26.525Z,25.36
2023-04-21T04:55:27.490Z,25.35
2023-04-21T04:56:26.528Z,25.35
2023-04-21T04:57:26.546Z,25.36
2023-04-21T04:58:26.557Z,25.36
2023-04-21T04:59:29.044Z,25.38
2023-04-21T05:00:26.553Z,25.35
2023-04-21T05:01:26.560Z,25.36
2023-04-21T05:02:26.624Z,25.35
2023-04-21T05:03:26.650Z,25.35
2023-04-21T05:04:27.183Z,25.33
2023-04-21T05:05:26.476Z,25.36
2023-04-21T05:06:26.475Z,25.35
2023-04-21T05:07:26.511Z,25.35
2023-04-21T05:08:26.507Z,25.33
2023-04-21T05:09:26.490Z,25.33
2023-04-21T05:10:26.454Z,25.35
2023-04-21T05:11:26.501Z,25.32
2023-04-21T05:12:26.454Z,25.33
2023-04-21T05:13:26.442Z,25.33
2023-04-21T05:14:26.430Z,25.33
2023-04-21T05:15:26.444Z,25.33
2023-04-21T05:16:26.474Z,25.36
2023-04-21T05:17:26.464Z,25.35
2023-04-21T05:18:26.408Z,25.35
2023-04-21T05:19:26.408Z,25.35
2023-04-21T05:20:26.377Z,25.35
2023-04-21T05:21:26.384Z,25.36
2023-04-21T05:22:26.400Z,25.36
2023-04-21T05:23:26.365Z,25.35
2023-04-21T05:24:26.370Z,25.35
2023-04-21T05:25:26.351Z,25.35
2023-04-21T05:26:26.362Z,25.35
2023-04-21T05:27:26.335Z,25.36
2023-04-21T05:28:26.333Z,25.35
2023-04-21T05:29:26.320Z,25.36
2023-04-21T05:30:26.346Z,25.35
2023-04-21T05:31:26.435Z,25.36
2023-04-21T05:32:26.387Z,25.38
2023-04-21T05:33:26.281Z,25.35
2023-04-21T05:34:26.282Z,25.35
2023-04-21T05:35:26.268Z,25.35
2023-04-21T05:36:26.259Z,25.38
2023-04-21T05:37:26.293Z,25.35
2023-04-21T05:38:26.248Z,25.36
2023-04-21T05:39:26.262Z,25.38
2023-04-21T05:40:26.259Z,25.36
2023-04-21T05:41:26.232Z,25.40
2023-04-21T05:42:26.227Z,25.43
2023-04-21T05:43:26.237Z,25.42
2023-04-21T05:44:26.201Z,25.45
2023-04-21T05:45:26.230Z,25.46
2023-04-21T05:46:26.284Z,25.48
2023-04-21T05:47:26.296Z,25.50
2023-04-21T05:48:26.187Z,25.53
2023-04-21T05:49:26.212Z,25.59
2023-04-21T05:50:26.220Z,25.62
2023-04-21T05:51:26.153Z,25.63
2023-04-21T05:52:26.525Z,25.66
2023-04-21T05:53:26.180Z,25.67
2023-04-21T05:54:26.142Z,25.69
2023-04-21T05:55:26.191Z,25.70
2023-04-21T05:56:27.213Z,25.72
2023-04-21T05:57:26.546Z,25.72
2023-04-21T05:58:26.123Z,25.73
2023-04-21T05:59:26.100Z,25.73
2023-04-21T06:00:26.097Z,25.75
2023-04-21T06:01:26.093Z,25.73
2023-04-21T06:02:26.210Z,25.73
2023-04-21T06:03:26.252Z,25.70
2023-04-21T06:04:26.937Z,25.72
2023-04-21T06:05:26.251Z,25.72
2023-04-21T06:06:26.247Z,25.72
2023-04-21T06:07:26.299Z,25.70
2023-04-21T06:08:26.342Z,25.67
2023-04-21T06:09:26.338Z,25.67
2023-04-21T06:10:26.451Z,25.66
2023-04-21T06:11:26.374Z,25.66
2023-04-21T06:12:26.359Z,25.65
2023-04-21T06:13:26.351Z,25.62
2023-04-21T06:14:26.361Z,25.62
2023-04-21T06:15:26.334Z,25.62
2023-04-21T06:16:26.370Z,25.63
2023-04-21T06:17:26.378Z,25.65
2023-04-21T06:18:26.375Z,25.63
2023-04-21T06:19:26.408Z,25.60
2023-04-21T06:20:26.370Z,25.60
2023-04-21T06:21:26.385Z,25.62
2023-04-21T06:22:26.390Z,25.60
2023-04-21T06:23:26.348Z,25.57
2023-04-21T06:24:26.352Z,25.57
2023-04-21T06:25:26.348Z,25.59
2023-04-21T06:26:26.358Z,25.56
2023-04-21T06:27:26.362Z,25.59
2023-04-21T06:28:26.332Z,25.59
2023-04-21T06:29:26.586Z,25.57
2023-04-21T06:30:26.356Z,25.56
2023-04-21T06:31:26.353Z,25.54
2023-04-21T06:32:26.386Z,25.57
2023-04-21T06:33:26.326Z,25.53
2023-04-21T06:34:26.341Z,25.54
2023-04-21T06:35:26.373Z,25.53
2023-04-21T06:36:26.310Z,25.53
2023-04-21T06:37:26.530Z,25.54
2023-04-21T06:38:26.342Z,25.52
2023-04-21T06:39:26.317Z,25.53
2023-04-21T06:40:26.316Z,25.53
2023-04-21T06:41:26.347Z,25.52
2023-04-21T06:42:26.292Z,25.52
2023-04-21T06:43:26.291Z,25.54
2023-04-21T06:44:26.302Z,25.56
2023-04-21T06:45:26.300Z,25.54
2023-04-21T06:46:26.366Z,25.56
2023-04-21T06:47:26.671Z,25.54
2023-04-21T06:48:26.311Z,25.54
2023-04-21T06:49:26.304Z,25.56
2023-04-21T06:50:26.424Z,25.56
2023-04-21T06:51:26.332Z,25.57
2023-04-21T06:52:26.538Z,25.57
2023-04-21T06:53:26.290Z,25.62
2023-04-21T06:54:26.304Z,25.63
2023-04-21T06:55:26.301Z,25.65
2023-04-21T06:56:26.300Z,25.63
2023-04-21T06:57:27.021Z,25.63
2023-04-21T06:58:26.330Z,25.65
2023-04-21T06:59:26.357Z,25.69
2023-04-21T07:00:26.380Z,25.69
2023-04-21T07:01:26.467Z,25.73
2023-04-21T07:02:26.613Z,25.75
2023-04-21T07:03:26.550Z,25.76
2023-04-21T07:04:26.563Z,25.76
2023-04-21T07:05:26.559Z,25.75
2023-04-21T07:06:26.594Z,25.77
2023-04-21T07:07:26.658Z,25.79
2023-04-21T07:08:26.654Z,25.77
2023-04-21T07:09:26.684Z,25.77
2023-04-21T07:10:26.900Z,25.76
2023-04-21T07:11:26.718Z,25.77
2023-04-21T07:12:27.059Z,25.77
2023-04-21T07:13:26.787Z,25.80
2023-04-21T07:14:26.851Z,25.81
2023-04-21T07:15:26.933Z,25.87
2023-04-21T07:16:27.028Z,25.90
2023-04-21T07:17:27.106Z,25.94
2023-04-21T07:18:27.057Z,25.96
2023-04-21T07:19:27.118Z,26.01
2023-04-21T07:20:27.161Z,26.04
2023-04-21T07:21:27.242Z,26.05
2023-04-21T07:22:27.288Z,26.10
2023-04-21T07:23:27.333Z,26.13
2023-04-21T07:24:27.396Z,26.16
2023-04-21T07:25:27.505Z,26.17
2023-04-21T07:26:27.493Z,26.16
2023-04-21T07:27:27.579Z,26.16
2023-04-21T07:28:27.555Z,26.16
2023-04-21T07:29:27.587Z,26.16
2023-04-21T07:30:27.756Z,26.16
2023-04-21T07:31:27.706Z,26.16
2023-04-21T07:32:27.789Z,26.13
2023-04-21T07:33:27.799Z,26.14
2023-04-21T07:34:27.847Z,26.13
2023-04-21T07:35:27.975Z,26.14
2023-04-21T07:36:27.952Z,26.16
2023-04-21T07:37:28.002Z,26.17
2023-04-21T07:38:28.600Z,26.17
2023-04-21T07:39:28.100Z,26.17
2023-04-21T07:40:28.150Z,26.23
2023-04-21T07:41:28.210Z,26.24
2023-04-21T07:42:28.551Z,26.30
2023-04-21T07:43:28.254Z,26.28
2023-04-21T07:44:28.328Z,26.30
2023-04-21T07:45:28.310Z,26.35
2023-04-21T07:46:28.461Z,26.35
2023-04-21T07:47:28.573Z,26.35
2023-04-21T07:48:28.404Z,26.37
2023-04-21T07:49:28.451Z,26.38
2023-04-21T07:50:28.509Z,26.41
2023-04-21T07:51:28.506Z,26.45
2023-04-21T07:52:28.539Z,26.45
2023-04-21T07:53:28.566Z,26.45
2023-04-21T07:54:30.327Z,26.48
2023-04-21T07:55:28.572Z,26.48
2023-04-21T07:56:28.542Z,26.50
2023-04-21T07:57:28.530Z,26.50
2023-04-21T07:58:28.520Z,26.55
2023-04-21T07:59:28.531Z,26.52
2023-04-21T08:00:28.513Z,26.55
2023-04-21T08:01:28.513Z,26.58
2023-04-21T08:02:28.598Z,26.56
2023-04-21T08:03:28.742Z,26.59
2023-04-21T08:04:28.566Z,26.59
2023-04-21T08:05:32.120Z,26.59
2023-04-21T08:06:29.660Z,26.63
2023-04-21T08:07:28.454Z,26.63
2023-04-21T08:08:30.738Z,26.63
2023-04-21T08:09:28.465Z,26.65
2023-04-21T08:10:28.470Z,26.65
2023-04-21T08:11:28.429Z,26.67
2023-04-21T08:12:28.418Z,26.65
2023-04-21T08:13:28.418Z,26.67
2023-04-21T08:14:28.417Z,26.69
2023-04-21T08:15:28.411Z,26.71
2023-04-21T08:16:28.448Z,26.72
2023-04-21T08:17:28.461Z,26.71
2023-04-21T08:18:28.357Z,26.74
2023-04-21T08:19:28.348Z,26.72
2023-04-21T08:20:28.407Z,26.71
2023-04-21T08:21:30.816Z,26.74
2023-04-21T08:22:28.465Z,26.74
2023-04-21T08:23:28.355Z,26.78
2023-04-21T08:24:28.362Z,26.79
2023-04-21T08:25:28.312Z,26.83
2023-04-21T08:26:28.349Z,26.85
2023-04-21T08:27:28.347Z,26.86
2023-04-21T08:28:28.316Z,26.89
2023-04-21T08:29:28.315Z,26.93
2023-04-21T08:30:28.395Z,26.91
2023-04-21T08:31:28.440Z,26.95
2023-04-21T08:32:28.408Z,26.98
2023-04-21T08:33:28.278Z,26.99
2023-04-21T08:34:28.489Z,27.03
2023-04-21T08:35:28.263Z,27.05
2023-04-21T08:36:29.898Z,27.06
2023-04-21T08:37:28.266Z,27.03
2023-04-21T08:38:28.253Z,27.05
2023-04-21T08:39:28.240Z,27.05
2023-04-21T08:40:28.221Z,27.06
2023-04-21T08:41:28.252Z,27.05
2023-04-21T08:42:28.582Z,27.05
2023-04-21T08:43:28.210Z,27.06
2023-04-21T08:44:28.275Z,27.05
2023-04-21T08:45:28.230Z,27.03
2023-04-21T08:46:28.213Z,27.03
2023-04-21T08:47:28.220Z,27.03
2023-04-21T08:48:28.188Z,27.02
2023-04-21T08:49:28.139Z,27.00
2023-04-21T08:50:28.160Z,27.00
2023-04-21T08:51:28.148Z,27.00
2023-04-21T08:52:28.571Z,26.99
2023-04-21T08:53:28.143Z,27.00
2023-04-21T08:54:29.847Z,26.96
2023-04-21T08:55:28.121Z,26.93
2023-04-21T08:56:28.109Z,26.96
2023-04-21T08:57:28.092Z,26.96
2023-04-21T08:58:28.085Z,26.98
2023-04-21T08:59:28.077Z,26.96
2023-04-21T09:00:28.060Z,26.98
2023-04-21T09:01:28.203Z,26.98
2023-04-21T09:02:28.177Z,26.99
2023-04-21T09:03:28.300Z,27.03
2023-04-21T09:04:28.345Z,27.03
2023-04-21T09:05:28.295Z,27.02
2023-04-21T09:06:28.081Z,27.05
2023-04-21T09:07:28.053Z,27.02
2023-04-21T09:08:28.047Z,26.99
2023-04-21T09:09:28.015Z,27.02
2023-04-21T09:10:27.999Z,27.00
2023-04-21T09:11:28.010Z,27.05
2023-04-21T09:12:28.051Z,27.00
2023-04-21T09:13:28.013Z,27.05
2023-04-21T09:14:28.034Z,27.03
2023-04-21T09:15:28.009Z,27.05
2023-04-21T09:16:28.031Z,27.05
2023-04-21T09:17:28.117Z,27.03
2023-04-21T09:18:28.015Z,27.05
2023-04-21T09:19:28.040Z,27.05
2023-04-21T09:20:28.013Z,27.07
2023-04-21T09:21:29.080Z,27.07
2023-04-21T09:22:28.033Z,27.07
2023-04-21T09:23:28.078Z,27.07
2023-04-21T09:24:28.027Z,27.12
2023-04-21T09:25:28.043Z,27.09
2023-04-21T09:26:28.037Z,27.12
2023-04-21T09:27:28.023Z,27.14
2023-04-21T09:28:28.044Z,27.16
2023-04-21T09:29:28.063Z,27.16
2023-04-21T09:30:28.113Z,27.16
2023-04-21T09:31:28.204Z,27.17
2023-04-21T09:32:28.271Z,27.17
2023-04-21T09:33:34.317Z,27.16
2023-04-21T09:34:30.099Z,27.16
2023-04-21T09:35:28.229Z,27.17
2023-04-21T09:36:28.276Z,27.17
2023-04-21T09:37:28.290Z,27.19
2023-04-21T09:38:28.600Z,27.19
2023-04-21T09:39:40.600Z,27.19
2023-04-21T09:40:29.395Z,27.17
2023-04-21T09:41:28.387Z,27.17
2023-04-21T09:42:28.387Z,27.17
2023-04-21T09:43:28.611Z,27.19
2023-04-21T09:44:28.353Z,27.23
2023-04-21T09:45:38.949Z,27.23
2023-04-21T09:46:29.401Z,27.22
2023-04-21T09:47:28.398Z,27.17
2023-04-21T09:48:28.334Z,27.14
2023-04-21T09:49:28.325Z,27.16
2023-04-21T09:51:03.852Z,27.14
2023-04-21T09:51:42.834Z,27.10
2023-04-21T09:52:29.296Z,27.06
2023-04-21T09:53:28.598Z,27.06
2023-04-21T09:54:30.356Z,27.05
2023-04-21T09:55:28.268Z,27.02
2023-04-21T09:56:28.262Z,26.98
2023-04-21T09:57:28.298Z,26.98
2023-04-21T09:58:28.254Z,26.96
2023-04-21T09:59:28.295Z,26.95
2023-04-21T10:00:28.803Z,26.92
2023-04-21T10:01:28.262Z,26.89
2023-04-21T10:02:28.351Z,26.89
2023-04-21T10:03:28.473Z,26.85
2023-04-21T10:04:28.844Z,26.81
2023-04-21T10:05:28.260Z,26.78
2023-04-21T10:06:28.239Z,26.72
2023-04-21T10:07:28.204Z,26.69
2023-04-21T10:08:28.257Z,26.63
2023-04-21T10:09:28.251Z,26.62
2023-04-21T10:10:28.306Z,26.59
2023-04-21T10:11:28.280Z,26.61
2023-04-21T10:12:28.322Z,26.59
2023-04-21T10:13:28.319Z,26.58
2023-04-21T10:14:28.329Z,26.62
2023-04-21T10:15:28.340Z,26.67
2023-04-21T10:16:28.401Z,26.69
2023-04-21T10:17:28.370Z,26.71
2023-04-21T10:18:28.391Z,26.71
2023-04-21T10:19:28.394Z,26.74
2023-04-21T10:20:28.406Z,26.75
2023-04-21T10:21:28.399Z,26.74
2023-04-21T10:22:28.384Z,26.78
2023-04-21T10:23:28.398Z,26.81
2023-04-21T10:24:28.383Z,26.82
2023-04-21T10:25:28.375Z,26.85
2023-04-21T10:26:28.403Z,26.86
2023-04-21T10:27:28.380Z,26.86
2023-04-21T10:28:28.379Z,26.82
2023-04-21T10:29:29.114Z,26.82
2023-04-21T10:30:28.408Z,26.79
2023-04-21T10:31:28.382Z,26.81
2023-04-21T10:32:28.376Z,26.79
2023-04-21T10:33:28.364Z,26.82
2023-04-21T10:34:28.347Z,26.82
2023-04-21T10:35:28.378Z,26.83
2023-04-21T10:36:28.336Z,26.86
2023-04-21T10:37:28.351Z,26.88
2023-04-21T10:38:28.623Z,26.92
2023-04-21T10:39:28.321Z,26.92
2023-04-21T10:40:42.525Z,26.95
2023-04-21T10:41:29.293Z,26.96
2023-04-21T10:42:28.297Z,27.00
2023-04-21T10:43:28.280Z,26.99
2023-04-21T10:44:28.262Z,26.99
2023-04-21T10:45:28.270Z,27.00
2023-04-21T10:46:28.294Z,26.99
2023-04-21T10:47:28.269Z,27.00
2023-04-21T10:48:28.228Z,27.00
2023-04-21T10:49:28.239Z,27.02
2023-04-21T10:50:28.236Z,27.02
2023-04-21T10:51:28.508Z,27.02
2023-04-21T10:52:28.220Z,27.02
2023-04-21T10:53:28.635Z,27.00
2023-04-21T10:54:28.193Z,27.02
2023-04-21T10:55:28.188Z,27.02
2023-04-21T10:56:28.177Z,26.99
2023-04-21T10:57:28.143Z,27.02
2023-04-21T10:58:28.156Z,27.00
2023-04-21T10:59:28.151Z,27.00
2023-04-21T11:00:28.133Z,27.00
2023-04-21T11:01:29.377Z,27.02
2023-04-21T11:02:28.270Z,27.00
2023-04-21T11:03:28.320Z,27.00
2023-04-21T11:04:28.708Z,26.99
2023-04-21T11:05:28.128Z,26.98
2023-04-21T11:06:28.105Z,27.02
2023-04-21T11:07:28.084Z,27.03
2023-04-21T11:08:28.118Z,27.00
2023-04-21T11:09:28.095Z,27.00
2023-04-21T11:10:28.081Z,26.99
2023-04-21T11:11:28.069Z,27.02
2023-04-21T11:12:28.054Z,27.02
2023-04-21T11:13:28.058Z,27.00
2023-04-21T11:14:28.035Z,27.02
2023-04-21T11:15:28.032Z,27.02
2023-04-21T11:16:28.040Z,27.02
2023-04-21T11:17:28.030Z,26.99
2023-04-21T11:18:28.034Z,27.03
2023-04-21T11:19:28.035Z,27.03
2023-04-21T11:20:28.037Z,27.03
2023-04-21T11:21:28.029Z,27.02
2023-04-21T11:22:28.039Z,27.03
2023-04-21T11:23:28.041Z,27.02
2023-04-21T11:24:28.049Z,27.02
2023-04-21T11:25:28.040Z,27.02
2023-04-21T11:26:28.054Z,27.05
2023-04-21T11:27:28.636Z,27.02
2023-04-21T11:28:28.136Z,27.02
2023-04-21T11:29:28.085Z,27.03
2023-04-21T11:30:28.093Z,27.03
2023-04-21T11:31:28.711Z,27.03
2023-04-21T11:32:28.158Z,27.03
2023-04-21T11:33:28.145Z,27.03
2023-04-21T11:34:28.101Z,27.05
2023-04-21T11:35:28.077Z,27.03
2023-04-21T11:36:28.080Z,27.03
2023-04-21T11:37:28.295Z,27.03
2023-04-21T11:38:28.065Z,27.05
2023-04-21T11:39:28.084Z,27.03
2023-04-21T11:40:28.109Z,27.05
2023-04-21T11:41:28.062Z,27.05
2023-04-21T11:42:28.076Z,27.06
2023-04-21T11:43:28.090Z,27.06
2023-04-21T11:44:28.066Z,27.03
2023-04-21T11:45:28.076Z,27.05
2023-04-21T11:46:28.103Z,27.05
2023-04-21T11:47:28.236Z,27.05
2023-04-21T11:48:28.076Z,27.03
2023-04-21T11:49:28.069Z,27.07
2023-04-21T11:50:28.085Z,27.06
2023-04-21T11:51:28.090Z,27.07
2023-04-21T11:52:28.100Z,27.09
2023-04-21T11:53:28.053Z,27.06
2023-04-21T11:54:28.041Z,27.09
2023-04-21T11:55:28.038Z,27.10
2023-04-21T11:56:28.040Z,27.12
2023-04-21T11:57:28.037Z,27.10
2023-04-21T11:58:28.088Z,27.12
2023-04-21T11:59:28.009Z,27.10
2023-04-21T12:00:28.004Z,27.10
2023-04-21T12:01:28.034Z,27.10
2023-04-21T12:02:28.106Z,27.13
2023-04-21T12:03:28.105Z,27.13
2023-04-21T12:04:28.181Z,27.16
2023-04-21T12:05:28.114Z,27.13
2023-04-21T12:06:28.009Z,27.13
2023-04-21T12:07:27.988Z,27.14
2023-04-21T12:08:28.046Z,27.16
2023-04-21T12:09:28.054Z,27.14
2023-04-21T12:10:28.059Z,27.14
2023-04-21T12:11:28.074Z,27.16
2023-04-21T12:12:28.064Z,27.19
2023-04-21T12:13:28.109Z,27.17
2023-04-21T12:14:28.142Z,27.17
2023-04-21T12:15:28.149Z,27.17
2023-04-21T12:16:28.289Z,27.20
2023-04-21T12:17:28.230Z,27.19
2023-04-21T12:18:28.285Z,27.22
2023-04-21T12:19:28.269Z,27.23
2023-04-21T12:20:28.338Z,27.23
2023-04-21T12:21:28.377Z,27.25
2023-04-21T12:22:28.414Z,27.22
2023-04-21T12:23:28.440Z,27.28
2023-04-21T12:24:28.496Z,27.25
2023-04-21T12:25:28.505Z,27.28
2023-04-21T12:26:28.546Z,27.26
2023-04-21T12:27:28.619Z,27.28
2023-04-21T12:28:28.664Z,27.28
2023-04-21T12:29:28.707Z,27.29
2023-04-21T12:30:28.737Z,27.30
2023-04-21T12:31:28.814Z,27.30
2023-04-21T12:32:28.842Z,27.32
2023-04-21T12:33:28.978Z,27.32
2023-04-21T12:34:28.939Z,27.33
2023-04-21T12:35:29.027Z,27.32
2023-04-21T12:36:29.041Z,27.36
2023-04-21T12:37:29.126Z,27.34
2023-04-21T12:38:29.150Z,27.39
2023-04-21T12:39:29.456Z,27.37
2023-04-21T12:40:29.338Z,27.40
2023-04-21T12:41:29.324Z,27.42
2023-04-21T12:42:29.393Z,27.44
2023-04-21T12:43:29.454Z,27.43
2023-04-21T12:44:29.513Z,27.47
2023-04-21T12:45:29.574Z,27.47
2023-04-21T12:46:29.842Z,27.50
2023-04-21T12:47:29.698Z,27.53
2023-04-21T12:48:29.748Z,27.56
2023-04-21T12:49:29.997Z,27.54
2023-04-21T12:50:29.866Z,27.56
2023-04-21T12:51:29.924Z,27.58
2023-04-21T12:52:29.966Z,27.58